Time;durP1;ratioP1;P1;durP2;ratioP2;P2;SDS_P1;SDS_P2;PMS_P1;PMS_P2;Temp;Humidity;BMP_temperature;BMP_pressure;BME280_temperature;BME280_humidity;BME280_pressure;Samples;Min_cycle;Max_cycle;Signal;HPM_P1;HPM_P2
2023/03/09 00:00:48;;;;;;;;;;;;;;;11.38;67.45;98884.31;1265338;23;621;-66
2023/03/09 00:01:39;;;;;;;;;;;;;;;11.35;66.91;98890.78;1266053;23;657;-66
2023/03/09 00:02:29;;;;;;;;;;;;;;;11.34;66.83;98888.28;1266565;23;645;-66
2023/03/09 00:03:19;;;;;;;;;;;;;;;11.35;66.88;98890.78;1266823;23;625;-66
2023/03/09 00:04:10;;;;;;;;;;;;;;;11.38;66.50;98885.16;1265747;23;618;-66
2023/03/09 00:05:01;;;;;;;;;;;;;;;11.37;66.97;98886.16;1266101;23;669;-66
2023/03/09 00:05:51;;;;;;;;;;;;;;;11.37;67.24;98894.16;1265762;23;879;-66
2023/03/09 00:06:41;;;;;;;;;;;;;;;11.38;66.67;98887.00;1265972;23;629;-66
2023/03/09 00:07:32;;;;;;;;;;;;;;;11.37;67.20;98887.97;1265778;23;617;-66
2023/03/09 00:08:22;;;;;;;;;;;;;;;11.37;66.70;98887.97;1265925;23;675;-66
2023/03/09 00:09:13;;;;;;;;;;;;;;;11.34;66.86;98875.78;1265728;23;618;-66
2023/03/09 00:10:03;;;;;;;;;;;;;;;11.35;66.65;98888.13;1265892;23;606;-66
2023/03/09 00:10:54;;;;;;;;;;;;;;;11.33;67.53;98886.59;1266003;23;630;-66
2023/03/09 00:11:44;;;;;;;;;;;;;;;11.31;66.72;98884.09;1265877;23;626;-66
2023/03/09 00:12:35;;;;;;;;;;;;;;;11.29;67.41;98885.22;1266057;23;684;-66
2023/03/09 00:13:25;;;;;;;;;;;;;;;11.29;67.03;98898.56;1266681;23;618;-66
2023/03/09 00:14:15;;;;;;;;;;;;;;;11.29;67.11;98904.72;1266054;23;650;-66
2023/03/09 00:15:06;;;;;;;;;;;;;;;11.27;67.00;98912.06;1265109;23;1881;-66
2023/03/09 00:15:56;;;;;;;;;;;;;;;11.30;67.17;98924.22;1265949;23;795;-66
2023/03/09 00:16:47;;;;;;;;;;;;;;;11.31;67.31;98925.91;1265613;23;599;-66
2023/03/09 00:17:37;;;;;;;;;;;;;;;11.30;67.22;98925.06;1265757;23;670;-66
2023/03/09 00:18:27;;;;;;;;;;;;;;;11.29;66.96;98927.88;1266041;23;653;-66
2023/03/09 00:19:20;;;;;;;;;;;;;;;11.29;66.79;98930.56;1265717;23;614;-66
2023/03/09 00:20:17;;;;;;;;;;;;;;;11.27;66.69;98924.56;1265649;23;665;-66
2023/03/09 00:21:07;;;;;;;;;;;;;;;11.30;67.34;98929.56;1265993;23;654;-66
2023/03/09 00:21:58;;;;;;;;;;;;;;;11.28;67.33;98927.06;1265809;23;666;-67
2023/03/09 00:22:48;;;;;;;;;;;;;;;11.28;66.85;98931.56;1265988;23;622;-67
2023/03/09 00:23:39;;;;;;;;;;;;;;;11.28;66.99;98927.06;1265775;23;653;-66
2023/03/09 00:24:30;;;;;;;;;;;;;;;11.29;67.04;98920.72;1265911;23;626;-66
2023/03/09 00:25:21;;;;;;;;;;;;;;;11.30;66.55;98914.41;1266014;23;633;-67
2023/03/09 00:26:11;;;;;;;;;;;;;;;11.31;67.51;98915.25;1266709;23;715;-66
2023/03/09 00:27:02;;;;;;;;;;;;;;;11.31;66.90;98923.25;1265798;23;665;-66
2023/03/09 00:27:52;;;;;;;;;;;;;;;11.28;67.01;98924.41;1265906;23;688;-66
2023/03/09 00:28:43;;;;;;;;;;;;;;;11.28;66.84;98912.91;1265571;23;736;-66
2023/03/09 00:29:33;;;;;;;;;;;;;;;11.29;67.68;98912.72;1265806;23;723;-66
2023/03/09 00:30:24;;;;;;;;;;;;;;;11.27;66.89;98909.41;1265965;23;654;-66
2023/03/09 00:31:14;;;;;;;;;;;;;;;11.28;67.09;98903.06;1265666;23;630;-66
2023/03/09 00:32:04;;;;;;;;;;;;;;;11.28;67.03;98908.41;1265941;23;693;-66
2023/03/09 00:32:55;;;;;;;;;;;;;;;11.26;67.32;98899.72;1265630;23;614;-65
2023/03/09 00:33:45;;;;;;;;;;;;;;;11.25;67.23;98903.38;1265781;23;653;-66
2023/03/09 00:34:36;;;;;;;;;;;;;;;11.25;66.88;98906.03;1266003;23;665;-66
2023/03/09 00:35:26;;;;;;;;;;;;;;;11.27;67.21;98908.56;1266493;23;1978;-66
2023/03/09 00:36:16;;;;;;;;;;;;;;;11.29;66.84;98907.38;1265992;23;634;-65
2023/03/09 00:37:07;;;;;;;;;;;;;;;11.28;67.50;98903.06;1265638;23;625;-66
2023/03/09 00:37:57;;;;;;;;;;;;;;;11.30;66.82;98909.06;1265887;23;768;-65
2023/03/09 00:38:48;;;;;;;;;;;;;;;11.28;67.54;98911.06;1265591;23;637;-66
2023/03/09 00:39:38;;;;;;;;;;;;;;;11.28;67.01;98908.41;1265747;23;622;-66
2023/03/09 00:40:29;;;;;;;;;;;;;;;11.28;67.07;98916.41;1266741;23;661;-66
2023/03/09 00:41:19;;;;;;;;;;;;;;;11.31;67.43;98905.41;1266744;23;645;-67
2023/03/09 00:42:10;;;;;;;;;;;;;;;11.30;66.88;98910.91;1266629;23;633;-66
2023/03/09 00:43:00;;;;;;;;;;;;;;;11.29;67.36;98902.06;1265722;23;632;-64
2023/03/09 00:43:51;;;;;;;;;;;;;;;11.29;67.33;98901.22;1265922;23;630;-64
2023/03/09 00:44:41;;;;;;;;;;;;;;;11.28;67.21;98896.91;1265739;23;606;-66
2023/03/09 00:45:31;;;;;;;;;;;;;;;11.25;67.43;98892.72;1265904;23;645;-66
2023/03/09 00:46:22;;;;;;;;;;;;;;;11.23;67.43;98889.34;1265818;23;706;-65
2023/03/09 00:47:12;;;;;;;;;;;;;;;11.25;67.41;98883.88;1265728;23;634;-64
2023/03/09 00:48:03;;;;;;;;;;;;;;;11.26;66.83;98885.56;1266024;23;669;-64
2023/03/09 00:48:53;;;;;;;;;;;;;;;11.24;67.42;98887.53;1265823;23;646;-64
2023/03/09 00:49:44;;;;;;;;;;;;;;;11.23;67.54;98888.50;1266005;23;626;-64
2023/03/09 00:50:34;;;;;;;;;;;;;;;11.21;67.59;98886.00;1265713;23;642;-66
2023/03/09 00:51:24;;;;;;;;;;;;;;;11.23;66.67;98902.69;1265944;23;669;-65
2023/03/09 00:52:15;;;;;;;;;;;;;;;11.24;67.47;98904.38;1266606;23;703;-64
2023/03/09 00:53:05;;;;;;;;;;;;;;;11.22;67.09;98908.16;1265865;23;661;-64
2023/03/09 00:53:56;;;;;;;;;;;;;;;11.21;67.43;98915.31;1266530;23;700;-64
2023/03/09 00:54:46;;;;;;;;;;;;;;;11.22;67.79;98929.50;1265947;23;773;-64
2023/03/09 00:55:37;;;;;;;;;;;;;;;11.22;67.05;98924.16;1265623;23;685;-64
2023/03/09 00:56:27;;;;;;;;;;;;;;;11.22;67.20;98938.34;1266546;23;641;-64
2023/03/09 00:57:18;;;;;;;;;;;;;;;11.21;67.30;98938.47;1265980;23;612;-64
2023/03/09 00:58:08;;;;;;;;;;;;;;;11.21;67.03;98947.31;1265670;23;626;-64
2023/03/09 00:58:59;;;;;;;;;;;;;;;11.23;67.54;98944.50;1265267;23;666;-64
2023/03/09 00:59:51;;;;;;;;;;;;;;;11.24;67.38;98951.50;1265637;23;645;-64
2023/03/09 01:00:42;;;;;;;;;;;;;;;11.22;66.91;98951.66;1266084;23;630;-64
2023/03/09 01:01:32;;;;;;;;;;;;;;;11.22;67.34;98956.16;1265753;23;610;-64
2023/03/09 01:02:22;;;;;;;;;;;;;;;11.20;67.17;98961.63;1266636;23;661;-65
2023/03/09 01:03:13;;;;;;;;;;;;;;;11.21;67.25;98963.31;1266473;23;731;-65
2023/03/09 01:04:03;;;;;;;;;;;;;;;11.23;66.79;98961.34;1265828;23;691;-66
2023/03/09 01:04:54;;;;;;;;;;;;;;;11.23;67.06;98953.34;1265940;23;641;-65
2023/03/09 01:05:44;;;;;;;;;;;;;;;11.24;67.09;98967.50;1265771;23;590;-65
2023/03/09 01:06:35;;;;;;;;;;;;;;;11.23;67.70;98961.34;1265873;23;642;-65
2023/03/09 01:07:25;;;;;;;;;;;;;;;11.22;66.84;98959.66;1266409;23;673;-65
2023/03/09 01:08:15;;;;;;;;;;;;;;;11.23;67.14;98955.16;1265783;23;587;-65
2023/03/09 01:09:06;;;;;;;;;;;;;;;11.21;67.36;98955.31;1265589;23;615;-65
2023/03/09 01:09:56;;;;;;;;;;;;;;;11.22;67.02;98953.50;1265689;23;642;-65
2023/03/09 01:10:47;;;;;;;;;;;;;;;11.19;67.59;98954.63;1265862;23;658;-64
2023/03/09 01:11:37;;;;;;;;;;;;;;;11.20;67.17;98948.31;1266478;23;669;-64
2023/03/09 01:12:27;;;;;;;;;;;;;;;11.17;67.02;98951.25;1265867;23;719;-64
2023/03/09 01:13:18;;;;;;;;;;;;;;;11.17;67.69;98959.25;1264928;23;757;-64
2023/03/09 01:14:08;;;;;;;;;;;;;;;11.19;67.60;98959.13;1265776;23;662;-64
2023/03/09 01:14:59;;;;;;;;;;;;;;;11.18;67.81;98958.28;1265946;23;626;-64
2023/03/09 01:15:49;;;;;;;;;;;;;;;11.18;67.04;98952.09;1265600;23;654;-65
2023/03/09 01:16:40;;;;;;;;;;;;;;;11.17;67.42;98951.25;1265999;23;622;-64
2023/03/09 01:17:30;;;;;;;;;;;;;;;11.16;67.41;98943.41;1265520;23;626;-64
2023/03/09 01:18:20;;;;;;;;;;;;;;;11.18;67.22;98944.09;1265763;23;653;-64
2023/03/09 01:19:11;;;;;;;;;;;;;;;11.19;67.57;98940.44;1265568;23;618;-64
2023/03/09 01:20:01;;;;;;;;;;;;;;;11.19;66.91;98954.63;1266524;23;658;-64
2023/03/09 01:20:52;;;;;;;;;;;;;;;11.19;66.91;98951.97;1265910;23;614;-64
2023/03/09 01:21:42;;;;;;;;;;;;;;;11.17;67.07;98948.59;1265743;23;742;-65
2023/03/09 01:22:33;;;;;;;;;;;;;;;11.18;67.71;98947.63;1266540;23;669;-65
2023/03/09 01:23:23;;;;;;;;;;;;;;;11.17;67.73;98956.59;1265660;23;611;-64
2023/03/09 01:24:13;;;;;;;;;;;;;;;11.18;66.86;98952.09;1266498;23;661;-64
2023/03/09 01:25:04;;;;;;;;;;;;;;;11.18;66.98;98958.28;1266498;23;602;-64
2023/03/09 01:25:54;;;;;;;;;;;;;;;11.19;67.21;98969.78;1265697;23;661;-65
2023/03/09 01:26:45;;;;;;;;;;;;;;;11.16;66.71;98965.56;1260914;23;681;-64
2023/03/09 01:27:35;;;;;;;;;;;;;;;11.13;67.31;98965.88;1260126;23;611;-65
2023/03/09 01:28:26;;;;;;;;;;;;;;;11.13;66.71;98965.88;1265864;23;642;-65
2023/03/09 01:29:16;;;;;;;;;;;;;;;11.12;67.56;98966.88;1266462;23;614;-64
2023/03/09 01:30:07;;;;;;;;;;;;;;;11.13;66.98;98971.22;1265862;23;791;-64
2023/03/09 01:30:57;;;;;;;;;;;;;;;11.13;66.98;98965.88;1265560;23;642;-64
2023/03/09 01:31:47;;;;;;;;;;;;;;;11.14;67.00;98975.56;1265801;23;556;-64
2023/03/09 01:32:38;;;;;;;;;;;;;;;11.13;66.96;98976.53;1265562;23;662;-65
2023/03/09 01:33:28;;;;;;;;;;;;;;;11.13;66.87;98979.19;1265767;23;611;-64
2023/03/09 01:34:19;;;;;;;;;;;;;;;11.12;66.86;98981.03;1265795;23;579;-65
2023/03/09 01:35:09;;;;;;;;;;;;;;;11.12;66.90;98983.69;1265504;23;1889;-65
2023/03/09 01:35:59;;;;;;;;;;;;;;;11.12;67.74;98980.19;1265762;23;698;-64
2023/03/09 01:36:50;;;;;;;;;;;;;;;11.13;67.30;98977.38;1265510;23;614;-65
2023/03/09 01:37:40;;;;;;;;;;;;;;;11.13;67.35;98973.88;1265469;23;1107;-65
2023/03/09 01:38:31;;;;;;;;;;;;;;;11.13;67.34;98981.88;1265866;23;661;-65
2023/03/09 01:39:21;;;;;;;;;;;;;;;11.13;66.79;98976.53;1265567;23;618;-65
2023/03/09 01:40:12;;;;;;;;;;;;;;;11.13;67.30;98977.38;1265696;23;658;-65
2023/03/09 01:41:02;;;;;;;;;;;;;;;11.11;66.54;98974.00;1265509;23;673;-65
2023/03/09 01:41:53;;;;;;;;;;;;;;;11.11;67.21;98978.50;1265732;23;627;-65
2023/03/09 01:42:43;;;;;;;;;;;;;;;11.10;67.54;98972.38;1265547;23;610;-65
2023/03/09 01:43:34;;;;;;;;;;;;;;;11.10;67.67;98976.84;1265836;23;653;-65
2023/03/09 01:44:25;;;;;;;;;;;;;;;11.09;67.33;98978.69;1265896;23;618;-65
2023/03/09 01:45:15;;;;;;;;;;;;;;;11.10;67.04;98977.69;1260929;23;677;-65
2023/03/09 01:46:06;;;;;;;;;;;;;;;11.08;67.44;98984.16;1260791;23;674;-65
2023/03/09 01:46:56;;;;;;;;;;;;;;;11.07;67.03;98985.16;1265591;23;611;-65
2023/03/09 01:47:46;;;;;;;;;;;;;;;11.06;67.67;98994.97;1265763;23;768;-65
2023/03/09 01:48:37;;;;;;;;;;;;;;;11.07;67.51;98993.97;1265916;23;654;-65
2023/03/09 01:49:27;;;;;;;;;;;;;;;11.05;67.15;98990.63;1265598;23;1076;-65
2023/03/09 01:50:18;;;;;;;;;;;;;;;11.08;66.89;98992.16;1265923;23;630;-65
2023/03/09 01:51:08;;;;;;;;;;;;;;;11.11;67.00;98989.16;1266431;23;662;-65
2023/03/09 01:51:58;;;;;;;;;;;;;;;11.10;66.85;98985.69;1265711;23;653;-65
2023/03/09 01:52:49;;;;;;;;;;;;;;;11.10;67.03;98983.03;1265547;23;629;-65
2023/03/09 01:53:39;;;;;;;;;;;;;;;11.09;67.33;98980.50;1265624;23;653;-65
2023/03/09 01:54:30;;;;;;;;;;;;;;;11.08;67.10;98981.50;1265849;23;688;-67
2023/03/09 01:55:20;;;;;;;;;;;;;;;11.09;67.00;98978.69;1265261;23;1944;-63
2023/03/09 01:56:11;;;;;;;;;;;;;;;11.11;67.41;98983.84;1265766;23;652;-65
2023/03/09 01:57:01;;;;;;;;;;;;;;;11.13;66.65;98979.19;1265060;23;653;-63
2023/03/09 01:57:52;;;;;;;;;;;;;;;11.12;67.76;98978.38;1265699;23;669;-64
2023/03/09 01:58:42;;;;;;;;;;;;;;;11.13;66.75;98982.72;1265613;23;606;-63
2023/03/09 01:59:32;;;;;;;;;;;;;;;11.14;67.07;98988.88;1260847;23;625;-64
2023/03/09 02:00:26;;;;;;;;;;;;;;;11.14;66.99;98983.53;1255928;23;815;-63
2023/03/09 02:01:16;;;;;;;;;;;;;;;11.13;67.51;98987.19;1259969;23;641;-63
2023/03/09 02:02:07;;;;;;;;;;;;;;;11.13;67.19;98989.88;1266395;23;665;-64
2023/03/09 02:02:57;;;;;;;;;;;;;;;11.12;67.39;98985.53;1265655;23;661;-64
2023/03/09 02:03:48;;;;;;;;;;;;;;;11.12;67.76;98990.84;1265814;23;615;-63
2023/03/09 02:04:38;;;;;;;;;;;;;;;11.11;67.52;99006.00;1265703;23;750;-65
2023/03/09 02:05:29;;;;;;;;;;;;;;;11.12;67.68;98996.19;1265778;23;685;-64
2023/03/09 02:06:19;;;;;;;;;;;;;;;11.11;67.90;98998.00;1265584;23;622;-64
2023/03/09 02:07:10;;;;;;;;;;;;;;;11.11;67.32;98998.00;1266406;23;657;-64
2023/03/09 02:08:00;;;;;;;;;;;;;;;11.10;67.77;98998.19;1266404;23;633;-64
2023/03/09 02:08:50;;;;;;;;;;;;;;;11.08;67.52;99001.00;1265631;23;653;-64
2023/03/09 02:09:41;;;;;;;;;;;;;;;11.08;67.60;98997.50;1266057;23;700;-64
2023/03/09 02:10:31;;;;;;;;;;;;;;;11.08;67.20;99006.31;1260843;23;602;-65
2023/03/09 02:11:22;;;;;;;;;;;;;;;11.09;67.83;98996.50;1259469;23;689;-65
2023/03/09 02:12:12;;;;;;;;;;;;;;;11.09;67.26;99004.50;1265425;23;619;-65
2023/03/09 02:13:03;;;;;;;;;;;;;;;11.10;67.40;99000.84;1265775;23;721;-65
2023/03/09 02:13:53;;;;;;;;;;;;;;;11.11;67.17;99010.50;1265506;23;658;-65
2023/03/09 02:14:44;;;;;;;;;;;;;;;11.09;67.15;99015.16;1265616;23;980;-65
2023/03/09 02:15:34;;;;;;;;;;;;;;;11.08;67.03;99010.81;1265285;23;1934;-65
2023/03/09 02:16:25;;;;;;;;;;;;;;;11.09;67.05;99012.50;1265752;23;650;-65
2023/03/09 02:17:16;;;;;;;;;;;;;;;11.07;67.28;99020.66;1265482;23;650;-65
2023/03/09 02:18:06;;;;;;;;;;;;;;;11.09;67.60;99015.16;1265637;23;622;-65
2023/03/09 02:18:56;;;;;;;;;;;;;;;11.08;67.89;99022.31;1265625;23;661;-65
2023/03/09 02:19:47;;;;;;;;;;;;;;;11.08;67.17;99021.47;1265616;23;619;-65
2023/03/09 02:20:37;;;;;;;;;;;;;;;11.07;67.51;99019.81;1265542;23;627;-65
2023/03/09 02:21:28;;;;;;;;;;;;;;;11.06;67.06;99023.44;1265879;23;653;-64
2023/03/09 02:22:18;;;;;;;;;;;;;;;11.08;67.29;99032.16;1265501;23;674;-65
2023/03/09 02:23:09;;;;;;;;;;;;;;;11.06;67.30;99024.28;1260967;23;676;-64
2023/03/09 02:23:59;;;;;;;;;;;;;;;11.07;67.97;99030.47;1259932;23;642;-65
2023/03/09 02:24:49;;;;;;;;;;;;;;;11.05;68.08;99024.44;1265710;23;654;-65
2023/03/09 02:25:40;;;;;;;;;;;;;;;11.08;67.25;99032.16;1264822;23;681;-65
2023/03/09 02:26:30;;;;;;;;;;;;;;;11.09;67.05;99028.50;1265615;23;602;-65
2023/03/09 02:27:21;;;;;;;;;;;;;;;11.08;67.92;99027.66;1265711;23;696;-64
2023/03/09 02:28:11;;;;;;;;;;;;;;;11.06;67.42;99029.63;1266406;23;624;-65
2023/03/09 02:29:02;;;;;;;;;;;;;;;11.06;66.97;99029.63;1265792;23;765;-64
2023/03/09 02:29:52;;;;;;;;;;;;;;;11.06;67.96;99018.13;1265321;23;748;-64
2023/03/09 02:30:43;;;;;;;;;;;;;;;11.06;67.17;99018.97;1266579;23;747;-65
2023/03/09 02:31:33;;;;;;;;;;;;;;;11.06;67.62;99018.13;1265581;23;665;-64
2023/03/09 02:32:23;;;;;;;;;;;;;;;11.06;67.34;99012.78;1265640;23;812;-64
2023/03/09 02:33:14;;;;;;;;;;;;;;;11.05;67.09;99024.44;1266312;23;877;-64
2023/03/09 02:34:05;;;;;;;;;;;;;;;11.04;67.60;99020.94;1265768;23;626;-64
2023/03/09 02:34:55;;;;;;;;;;;;;;;11.03;67.57;99013.91;1266356;23;732;-64
2023/03/09 02:35:45;;;;;;;;;;;;;;;11.04;67.46;99014.75;1266475;23;653;-64
2023/03/09 02:36:36;;;;;;;;;;;;;;;11.04;67.33;99015.59;1266544;23;634;-64
2023/03/09 02:37:26;;;;;;;;;;;;;;;11.05;67.89;99027.09;1265335;23;1197;-64
2023/03/09 02:38:17;;;;;;;;;;;;;;;11.07;67.56;99025.13;1265826;23;697;-64
2023/03/09 02:39:07;;;;;;;;;;;;;;;11.05;67.05;99032.44;1266434;23;677;-65
2023/03/09 02:39:58;;;;;;;;;;;;;;;11.04;67.55;99036.09;1265890;23;642;-65
2023/03/09 02:40:48;;;;;;;;;;;;;;;11.03;67.68;99034.41;1265412;23;1073;-65
2023/03/09 02:41:39;;;;;;;;;;;;;;;11.00;67.59;99037.34;1265707;23;633;-64
2023/03/09 02:42:29;;;;;;;;;;;;;;;11.00;67.76;99040.03;1265340;23;510;-65
2023/03/09 02:43:19;;;;;;;;;;;;;;;11.00;67.54;99037.34;1265680;23;618;-65
2023/03/09 02:44:10;;;;;;;;;;;;;;;11.00;67.49;99045.34;1265706;23;706;-67
2023/03/09 02:45:01;;;;;;;;;;;;;;;11.01;67.66;99047.03;1265659;23;641;-64
2023/03/09 02:45:51;;;;;;;;;;;;;;;11.02;67.16;99046.03;1260835;23;660;-66
2023/03/09 02:46:41;;;;;;;;;;;;;;;11.01;67.58;99041.69;1260846;23;677;-66
2023/03/09 02:47:32;;;;;;;;;;;;;;;11.02;67.63;99038.06;1265713;23;642;-66
2023/03/09 02:48:22;;;;;;;;;;;;;;;11.00;67.14;99032.88;1265634;23;758;-66
2023/03/09 02:49:13;;;;;;;;;;;;;;;11.02;67.74;99024.72;1266466;23;637;-66
2023/03/09 02:50:03;;;;;;;;;;;;;;;11.03;67.50;99023.75;1265459;23;674;-66
2023/03/09 02:50:54;;;;;;;;;;;;;;;11.02;67.66;99022.91;1266383;23;681;-66
2023/03/09 02:51:44;;;;;;;;;;;;;;;11.01;67.12;99026.56;1266352;23;689;-66
2023/03/09 02:52:34;;;;;;;;;;;;;;;10.98;67.15;99026.84;1265746;23;646;-66
2023/03/09 02:53:25;;;;;;;;;;;;;;;11.00;67.64;99029.34;1265747;23;737;-66
2023/03/09 02:54:15;;;;;;;;;;;;;;;10.99;67.42;99038.34;1265495;23;642;-66
2023/03/09 02:55:06;;;;;;;;;;;;;;;10.95;67.72;99036.94;1265639;23;650;-66
2023/03/09 02:55:57;;;;;;;;;;;;;;;10.98;67.22;99036.66;1265817;23;650;-66
2023/03/09 02:56:47;;;;;;;;;;;;;;;10.99;67.22;99030.34;1266448;23;657;-66
2023/03/09 02:57:38;;;;;;;;;;;;;;;10.99;67.65;99033.00;1265641;23;634;-65
2023/03/09 02:58:28;;;;;;;;;;;;;;;11.01;67.36;99023.03;1265454;23;594;-66
2023/03/09 02:59:19;;;;;;;;;;;;;;;11.00;67.69;99024.03;1265661;23;618;-66
2023/03/09 03:00:09;;;;;;;;;;;;;;;10.99;67.22;99023.19;1266318;23;677;-66
2023/03/09 03:01:00;;;;;;;;;;;;;;;10.99;67.72;99030.34;1265757;23;690;-66
2023/03/09 03:01:50;;;;;;;;;;;;;;;10.99;66.96;99033.84;1265565;23;638;-66
2023/03/09 03:02:41;;;;;;;;;;;;;;;10.98;67.98;99040.16;1266484;23;637;-66
2023/03/09 03:03:31;;;;;;;;;;;;;;;10.96;67.95;99039.47;1266342;23;642;-66
2023/03/09 03:04:22;;;;;;;;;;;;;;;10.97;67.93;99030.50;1265737;23;669;-66
2023/03/09 03:05:12;;;;;;;;;;;;;;;10.98;67.72;99034.00;1265521;23;626;-66
2023/03/09 03:06:03;;;;;;;;;;;;;;;10.98;67.45;99031.31;1265584;23;673;-66
2023/03/09 03:06:53;;;;;;;;;;;;;;;10.99;67.33;99033.00;1265803;23;618;-66
2023/03/09 03:07:43;;;;;;;;;;;;;;;10.98;67.26;99034.84;1265771;23;628;-67
2023/03/09 03:08:35;;;;;;;;;;;;;;;10.98;67.35;99032.16;1266201;23;625;-66
2023/03/09 03:09:25;;;;;;;;;;;;;;;10.98;67.75;99042.00;1265230;23;662;-66
2023/03/09 03:10:16;;;;;;;;;;;;;;;10.96;67.85;99042.13;1266231;23;630;-67
2023/03/09 03:11:06;;;;;;;;;;;;;;;10.95;67.74;99044.94;1266659;23;661;-66
2023/03/09 03:11:57;;;;;;;;;;;;;;;10.94;67.27;99038.78;1266079;23;595;-66
2023/03/09 03:12:47;;;;;;;;;;;;;;;10.95;66.94;99043.13;1266147;23;630;-66
2023/03/09 03:13:37;;;;;;;;;;;;;;;10.96;67.08;99039.47;1265946;23;603;-66
2023/03/09 03:14:28;;;;;;;;;;;;;;;10.97;67.33;99043.81;1266059;23;603;-66
2023/03/09 03:15:18;;;;;;;;;;;;;;;10.95;67.72;99042.28;1265703;23;1930;-66
2023/03/09 03:16:09;;;;;;;;;;;;;;;10.92;67.95;99038.09;1266836;23;641;-66
2023/03/09 03:16:59;;;;;;;;;;;;;;;10.94;67.46;99038.78;1266836;23;764;-66
2023/03/09 03:17:49;;;;;;;;;;;;;;;10.96;67.23;99051.94;1266017;23;661;-67
2023/03/09 03:18:40;;;;;;;;;;;;;;;10.97;67.36;99040.31;1266124;23;626;-66
2023/03/09 03:19:32;;;;;;;;;;;;;;;10.98;67.79;99042.00;1265894;23;622;-67
2023/03/09 03:20:22;;;;;;;;;;;;;;;10.98;67.15;99042.00;1266728;23;610;-67
2023/03/09 03:21:13;;;;;;;;;;;;;;;10.96;67.14;99044.78;1266166;23;641;-67
2023/03/09 03:22:03;;;;;;;;;;;;;;;10.97;67.36;99042.97;1266707;23;618;-66
2023/03/09 03:22:54;;;;;;;;;;;;;;;10.94;66.99;99049.44;1266089;23;658;-66
2023/03/09 03:23:44;;;;;;;;;;;;;;;10.94;67.67;99052.09;1265255;23;1112;-66
2023/03/09 03:24:35;;;;;;;;;;;;;;;10.94;67.48;99053.91;1266039;23;672;-66
2023/03/09 03:25:25;;;;;;;;;;;;;;;10.93;67.02;99046.91;1265811;23;646;-66
2023/03/09 03:26:15;;;;;;;;;;;;;;;10.94;67.54;99048.59;1265943;23;598;-66
2023/03/09 03:27:06;;;;;;;;;;;;;;;10.97;67.90;99050.97;1265965;23;725;-66
2023/03/09 03:27:56;;;;;;;;;;;;;;;10.94;67.28;99046.75;1265850;23;649;-66
2023/03/09 03:28:47;;;;;;;;;;;;;;;10.95;67.48;99047.59;1265967;23;616;-66
2023/03/09 03:29:37;;;;;;;;;;;;;;;10.97;67.19;99053.63;1266645;23;649;-66
2023/03/09 03:30:28;;;;;;;;;;;;;;;10.94;67.10;99046.75;1266765;23;614;-66
2023/03/09 03:31:18;;;;;;;;;;;;;;;10.93;67.37;99049.56;1266102;23;658;-66
2023/03/09 03:32:08;;;;;;;;;;;;;;;10.90;67.50;99050.72;1266745;23;654;-66
2023/03/09 03:32:59;;;;;;;;;;;;;;;10.92;67.27;99058.59;1266075;23;792;-66
2023/03/09 03:33:49;;;;;;;;;;;;;;;10.90;67.55;99056.06;1265711;23;584;-65
2023/03/09 03:34:40;;;;;;;;;;;;;;;10.90;67.79;99056.06;1266848;23;649;-66
2023/03/09 03:35:30;;;;;;;;;;;;;;;10.91;67.20;99059.56;1266539;23;1918;-66
2023/03/09 03:36:20;;;;;;;;;;;;;;;10.89;67.34;99066.88;1266003;23;626;-66
2023/03/09 03:37:12;;;;;;;;;;;;;;;10.90;67.36;99068.53;1266092;23;628;-66
2023/03/09 03:38:02;;;;;;;;;;;;;;;10.92;67.37;99072.75;1265773;23;681;-66
2023/03/09 03:38:53;;;;;;;;;;;;;;;10.94;67.23;99075.25;1266757;23;661;-66
2023/03/09 03:39:43;;;;;;;;;;;;;;;10.94;67.17;99077.91;1265797;23;599;-66
2023/03/09 03:40:34;;;;;;;;;;;;;;;10.93;67.78;99074.41;1266094;23;598;-66
2023/03/09 03:41:24;;;;;;;;;;;;;;;10.93;67.63;99076.22;1266101;23;590;-66
2023/03/09 03:42:14;;;;;;;;;;;;;;;10.93;67.75;99076.22;1265690;23;607;-66
2023/03/09 03:43:05;;;;;;;;;;;;;;;10.92;67.35;99078.06;1266117;23;638;-66
2023/03/09 03:43:55;;;;;;;;;;;;;;;10.94;67.28;99077.91;1265872;23;634;-67
2023/03/09 03:44:46;;;;;;;;;;;;;;;10.93;67.17;99074.41;1265905;23;633;-66
2023/03/09 03:45:36;;;;;;;;;;;;;;;10.94;67.62;99075.25;1265720;23;614;-66
2023/03/09 03:46:27;;;;;;;;;;;;;;;10.92;67.74;99077.25;1265881;23;624;-66
2023/03/09 03:47:17;;;;;;;;;;;;;;;10.93;67.79;99093.06;1266188;23;641;-66
2023/03/09 03:48:07;;;;;;;;;;;;;;;10.93;67.59;99079.72;1265901;23;625;-66
2023/03/09 03:48:58;;;;;;;;;;;;;;;10.93;67.87;99081.56;1265976;23;626;-66
2023/03/09 03:49:48;;;;;;;;;;;;;;;10.92;67.02;99091.41;1265818;23;650;-66
2023/03/09 03:50:39;;;;;;;;;;;;;;;10.90;67.17;99087.19;1266042;23;669;-66
2023/03/09 03:51:30;;;;;;;;;;;;;;;10.92;67.44;99087.91;1265782;23;630;-66
2023/03/09 03:52:20;;;;;;;;;;;;;;;10.93;67.78;99092.22;1266101;23;657;-66
2023/03/09 03:53:11;;;;;;;;;;;;;;;10.90;67.81;99088.03;1265743;23;669;-66
2023/03/09 03:54:01;;;;;;;;;;;;;;;10.89;67.89;99085.50;1266150;23;635;-66
2023/03/09 03:54:51;;;;;;;;;;;;;;;10.90;68.03;99089.88;1265764;23;627;-66
2023/03/09 03:55:42;;;;;;;;;;;;;;;10.89;67.83;99089.03;1266251;23;638;-67
2023/03/09 03:56:32;;;;;;;;;;;;;;;10.89;67.76;99094.34;1265828;23;674;-66
2023/03/09 03:57:23;;;;;;;;;;;;;;;10.88;67.61;99102.50;1266000;23;692;-66
2023/03/09 03:58:13;;;;;;;;;;;;;;;10.88;67.91;99094.50;1265576;23;618;-66
2023/03/09 03:59:04;;;;;;;;;;;;;;;10.89;67.53;99090.84;1266641;23;743;-66
2023/03/09 03:59:54;;;;;;;;;;;;;;;10.89;67.57;99090.84;1266599;23;613;-66
2023/03/09 04:00:45;;;;;;;;;;;;;;;10.88;67.76;99099.81;1265908;23;654;-66
2023/03/09 04:01:35;;;;;;;;;;;;;;;10.88;66.97;99098.00;1266146;23;678;-66
2023/03/09 04:02:25;;;;;;;;;;;;;;;10.87;67.93;99103.47;1265899;23;622;-66
2023/03/09 04:03:16;;;;;;;;;;;;;;;10.89;67.83;99106.84;1266029;23;662;-67
2023/03/09 04:04:07;;;;;;;;;;;;;;;10.89;67.29;99113.00;1265781;23;650;-66
2023/03/09 04:04:57;;;;;;;;;;;;;;;10.88;67.81;99116.66;1265785;23;681;-66
2023/03/09 04:05:48;;;;;;;;;;;;;;;10.88;67.24;99118.47;1265871;23;676;-66
2023/03/09 04:06:38;;;;;;;;;;;;;;;10.89;68.00;99118.34;1265788;23;657;-66
2023/03/09 04:07:29;;;;;;;;;;;;;;;10.88;67.78;99121.97;1265101;23;639;-66
2023/03/09 04:08:19;;;;;;;;;;;;;;;10.87;67.31;99125.63;1266107;23;634;-66
2023/03/09 04:09:09;;;;;;;;;;;;;;;10.87;67.58;99124.78;1260984;23;590;-66
2023/03/09 04:10:00;;;;;;;;;;;;;;;10.88;67.39;99119.31;1260350;23;650;-66
2023/03/09 04:10:50;;;;;;;;;;;;;;;10.88;67.71;99127.31;1260866;23;639;-66
2023/03/09 04:11:41;;;;;;;;;;;;;;;10.88;67.21;99123.81;1260307;23;670;-66
2023/03/09 04:12:31;;;;;;;;;;;;;;;10.87;67.88;99130.13;1266313;23;649;-66
2023/03/09 04:13:21;;;;;;;;;;;;;;;10.87;67.87;99130.97;1265784;23;657;-66
2023/03/09 04:14:12;;;;;;;;;;;;;;;10.87;67.59;99135.44;1265907;23;670;-65
2023/03/09 04:15:02;;;;;;;;;;;;;;;10.86;67.96;99136.44;1265817;23;610;-65
2023/03/09 04:15:53;;;;;;;;;;;;;;;10.86;67.32;99139.94;1265846;23;669;-66
2023/03/09 04:16:43;;;;;;;;;;;;;;;10.85;67.72;99148.91;1265709;23;677;-66
2023/03/09 04:17:34;;;;;;;;;;;;;;;10.82;67.62;99143.84;1265850;23;657;-65
2023/03/09 04:18:24;;;;;;;;;;;;;;;10.84;67.12;99149.88;1261014;23;606;-66
2023/03/09 04:19:14;;;;;;;;;;;;;;;10.84;68.13;99149.06;1260258;23;618;-66
2023/03/09 04:20:05;;;;;;;;;;;;;;;10.83;67.57;99153.53;1261104;23;654;-65
2023/03/09 04:20:55;;;;;;;;;;;;;;;10.83;67.59;99155.38;1260243;23;634;-65
2023/03/09 04:21:46;;;;;;;;;;;;;;;10.83;67.44;99158.88;1265307;23;641;-66
2023/03/09 04:22:36;;;;;;;;;;;;;;;10.84;68.05;99159.72;1266596;23;779;-66
2023/03/09 04:23:27;;;;;;;;;;;;;;;10.84;67.90;99162.38;1265851;23;650;-66
2023/03/09 04:24:17;;;;;;;;;;;;;;;10.84;68.08;99168.53;1266073;23;673;-66
2023/03/09 04:25:07;;;;;;;;;;;;;;;10.84;67.22;99162.38;1266630;23;685;-66
2023/03/09 04:25:58;;;;;;;;;;;;;;;10.85;67.27;99162.22;1265924;23;657;-66
2023/03/09 04:26:48;;;;;;;;;;;;;;;10.84;67.31;99162.38;1265650;23;729;-66
2023/03/09 04:27:39;;;;;;;;;;;;;;;10.84;67.55;99162.38;1265815;23;614;-65
2023/03/09 04:28:29;;;;;;;;;;;;;;;10.82;67.85;99162.50;1266178;23;705;-65
2023/03/09 04:29:20;;;;;;;;;;;;;;;10.82;67.70;99165.19;1265839;23;716;-66
2023/03/09 04:30:10;;;;;;;;;;;;;;;10.84;67.60;99178.38;1261081;23;700;-66